Strona główna
METAR-TAF:

METAR-TAF

Lotnisko :

Port lotniczy Pekanbaru

Pekanbaru, Indonezja

Szerokość geograficzna: 00-28N, Długość geograficzna: 101-27E, wysokość: 31 m

Aktualna obserwacja pogody

Raport powstał 31 minut temu, godzina 06:00 UTC
Wiatr 7 kt od wschodnio-południowy wschód
Temperatura 31°C
Wilgotność 66%
Ciśnienie 1010 hPa
Widzialność 10 km lub więcej
Rozproszone chmury na wysokości 1400 ft

METAR: WIBB 170600Z 12007KT 9999 SCT014 31/24 Q1010

czas: 13:31 (06:31 UTC)


TAF: brakujący

Obserwacja i prognoza pogody dla ponad 4000 lotnisk (raport METAR i TAF).

Dostępne stacje oznaczono żółtymi i czerwonymi punktami na mapie.

Najedź kursorem aby zobaczyć nazwę stacji.

Kliknij aby zobaczyć obserwacje i prognozy pogody.

Aby zmienić mapę: kliknij na zielony przycisk z czarnym krzyżykiem, aby powiększyć; na zielony przycisk z myślnikiem, aby pomniejszyć; na zielone strzałki, aby przejść do map sąsiednich.


METAR-TAF: